»·PEaware :: N9622C KSAF-KABQ

N9622C :: KSAF-KABQ

FLIGHT INFORMATION

Flight Status: Arrived
Operator: Privately registered:
United States
More flights under this callsign
Pilot: Michael D. (17574)
Aircraft: CESSNA 172 SKYHAWK
(C172)
More flights by this aircraft type
Origin: KSAF Santa Fe Mun
United States
Destination: KABQ Albuquerque Intl Sunport
United States
More flights between these airports :: More routes between these airports
Route: +ZIASE4 ABQ
File this flight plan on PilotEdge
Remarks: METAR same other than solid overcast for IFR practice in VR
Altitude:
(Current/Filed)
9,000ft
Speed:
(Current/Filed)
120kts
Departed: 28-Feb-20 07:44 PM
Arrived: 28-Feb-20 08:31 PM
Distance/Time
Traveled:
43nm/0:47
Distance/Time
To Go:
Arrived

Flight Plot

Page will automatically refresh every two minutes.

Flight plan parsing failed; only flown route is shown


Map Options




Map Legend


Flown Route
Filed Route
Departure Airport
Arrival Airport
Navaid (VOR, NDB)
Fix

Horizontal Profiles

Position Reports

Time Latitude Longitude Heading Altitude Ground
Speed
28-Feb-20 19:09 35.615987 -106.083532 203 6308ft 0kts
28-Feb-20 19:10 35.615987 -106.083532 203 6308ft 0kts
28-Feb-20 19:11 35.615987 -106.083532 203 6308ft 0kts
28-Feb-20 19:12 35.615987 -106.083532 203 6308ft 0kts
28-Feb-20 19:13 35.615987 -106.083532 203 6308ft 0kts
28-Feb-20 19:14 35.615987 -106.083532 203 6308ft 0kts
28-Feb-20 19:16 35.615987 -106.083532 203 6308ft 0kts
28-Feb-20 19:17 35.615987 -106.083532 203 6308ft 0kts
28-Feb-20 19:18 35.615987 -106.083532 203 6308ft 0kts
28-Feb-20 19:19 35.615987 -106.083532 203 6308ft 0kts
28-Feb-20 19:20 35.615987 -106.083532 203 6308ft 0kts
28-Feb-20 19:21 35.615987 -106.083532 203 6308ft 0kts
28-Feb-20 19:22 35.615987 -106.083532 203 6308ft 0kts
28-Feb-20 19:23 35.615987 -106.083532 203 6308ft 0kts
28-Feb-20 19:24 35.615987 -106.083532 203 6308ft 0kts
28-Feb-20 19:25 35.615987 -106.083532 203 6308ft 0kts
28-Feb-20 19:26 35.615987 -106.083532 203 6308ft 0kts
28-Feb-20 19:27 35.615987 -106.083532 203 6308ft 0kts
28-Feb-20 19:28 35.615987 -106.083532 203 6308ft 0kts
28-Feb-20 19:29 35.615987 -106.083532 203 6308ft 0kts
28-Feb-20 19:30 35.615987 -106.083532 203 6308ft 0kts
28-Feb-20 19:31 35.615987 -106.083532 203 6308ft 0kts
28-Feb-20 19:32 35.615987 -106.083532 203 6308ft 0kts
28-Feb-20 19:32 35.615987 -106.083532 203 6308ft 0kts
28-Feb-20 19:34 35.615963 -106.083544 203 6308ft 2kts
28-Feb-20 19:35 35.616201 -106.084890 304 6312ft 5kts
28-Feb-20 19:36 35.614462 -106.087950 228 6304ft 17kts
28-Feb-20 19:37 35.610534 -106.092212 215 6287ft 19kts
28-Feb-20 19:37 35.608110 -106.094053 244 6274ft 3kts
28-Feb-20 19:39 35.608092 -106.094098 243 6274ft 0kts
28-Feb-20 19:40 35.608092 -106.094098 243 6274ft 0kts
28-Feb-20 19:40 35.608092 -106.094098 243 6274ft 0kts
28-Feb-20 19:42 35.607903 -106.094529 240 6272ft 8kts
28-Feb-20 19:42 35.608720 -106.095429 32 6278ft 9kts
28-Feb-20 19:43 35.624487 -106.081999 31 6632ft 85kts
28-Feb-20 19:45 35.641949 -106.084829 238 7350ft 92kts
28-Feb-20 19:45 35.623134 -106.098806 210 7856ft 95kts
28-Feb-20 19:46 35.599477 -106.112818 215 8465ft 90kts
28-Feb-20 19:47 35.577711 -106.128595 217 9047ft 87kts
28-Feb-20 19:48 35.556456 -106.143406 212 9593ft 87kts
28-Feb-20 19:49 35.533992 -106.155538 212 10090ft 88kts
28-Feb-20 19:50 35.534591 -106.183877 276 10502ft 85kts
28-Feb-20 19:51 35.540686 -106.217821 281 10089ft 117kts
28-Feb-20 19:52 35.536085 -106.254893 256 9870ft 105kts
28-Feb-20 19:53 35.532934 -106.290383 265 10043ft 110kts
28-Feb-20 19:54 35.533561 -106.330340 270 10017ft 120kts
28-Feb-20 19:55 35.529662 -106.370008 262 9932ft 112kts
28-Feb-20 19:56 35.530536 -106.406186 272 9961ft 101kts
28-Feb-20 19:57 35.531745 -106.439762 268 10004ft 95kts
28-Feb-20 19:58 35.531083 -106.473219 261 10103ft 98kts
28-Feb-20 19:59 35.530846 -106.508351 274 10145ft 110kts
28-Feb-20 20:00 35.529520 -106.546709 263 10121ft 115kts
28-Feb-20 20:01 35.530295 -106.586107 274 10085ft 117kts
28-Feb-20 20:02 35.505994 -106.605992 194 9957ft 121kts
28-Feb-20 20:03 35.473364 -106.615405 199 9889ft 121kts
28-Feb-20 20:04 35.441532 -106.628941 205 9558ft 125kts
28-Feb-20 20:05 35.409939 -106.646133 221 8879ft 129kts
28-Feb-20 20:06 35.385135 -106.674093 223 8107ft 119kts
28-Feb-20 20:07 35.357802 -106.692536 190 7955ft 111kts
28-Feb-20 20:08 35.327590 -106.697263 190 7956ft 107kts
28-Feb-20 20:09 35.297596 -106.702015 190 7956ft 107kts
28-Feb-20 20:10 35.267481 -106.706735 190 7956ft 108kts
28-Feb-20 20:11 35.237610 -106.711285 189 8037ft 102kts
28-Feb-20 20:12 35.207528 -106.715963 190 8030ft 112kts
28-Feb-20 20:13 35.176457 -106.720945 190 8030ft 112kts
28-Feb-20 20:14 35.145375 -106.725957 187 8047ft 112kts
28-Feb-20 20:15 35.114064 -106.732140 188 7983ft 112kts
28-Feb-20 20:16 35.083520 -106.737863 191 8017ft 110kts
28-Feb-20 20:17 35.053292 -106.741973 191 8076ft 110kts
28-Feb-20 20:18 35.023760 -106.751022 212 8055ft 114kts
28-Feb-20 20:19 35.001121 -106.777941 220 8023ft 111kts
28-Feb-20 20:20 34.978302 -106.803822 219 7988ft 112kts
28-Feb-20 20:21 34.956044 -106.829767 221 8011ft 111kts
28-Feb-20 20:22 34.930336 -106.819598 133 7607ft 124kts
28-Feb-20 20:23 34.909567 -106.788362 115 7430ft 116kts
28-Feb-20 20:24 34.921464 -106.751002 54 7404ft 118kts
28-Feb-20 20:25 34.946750 -106.723991 52 7183ft 115kts
28-Feb-20 20:26 34.969191 -106.694784 44 6842ft 116kts
28-Feb-20 20:27 34.990609 -106.668265 47 6203ft 93kts
28-Feb-20 20:28 35.008544 -106.647314 44 5743ft 83kts
28-Feb-20 20:29 35.023483 -106.629078 46 5337ft 68kts
28-Feb-20 20:30 35.030806 -106.622275 26 5317ft 19kts
28-Feb-20 20:31 35.034474 -106.618054 1 5319ft 0kts
28-Feb-20 20:32 35.036810 -106.616155 52 5319ft 10kts
28-Feb-20 20:33 35.037720 -106.616135 16 5319ft 0kts

Navigation Log

Ident Type
Flight plan parsing failed, navigation log unavailable